sensor_id;sensor_type;location;lat;lon;timestamp;P1;durP1;ratioP1;P2;durP2;ratioP2
29574;SDS011;16507;51.046;6.406;2023-06-22T00:00:46;6.45;;;5.13;;
29574;SDS011;16507;51.046;6.406;2023-06-22T00:03:12;7.55;;;5.65;;
29574;SDS011;16507;51.046;6.406;2023-06-22T00:05:38;5.88;;;5.20;;
29574;SDS011;16507;51.046;6.406;2023-06-22T00:08:04;7.57;;;5.68;;
29574;SDS011;16507;51.046;6.406;2023-06-22T00:10:30;5.68;;;5.10;;
29574;SDS011;16507;51.046;6.406;2023-06-22T00:12:56;5.25;;;4.85;;
29574;SDS011;16507;51.046;6.406;2023-06-22T00:15:21;9.35;;;5.10;;
29574;SDS011;16507;51.046;6.406;2023-06-22T00:17:47;40.63;;;6.07;;
29574;SDS011;16507;51.046;6.406;2023-06-22T00:20:14;7.00;;;5.20;;
29574;SDS011;16507;51.046;6.406;2023-06-22T00:22:41;6.22;;;5.55;;
29574;SDS011;16507;51.046;6.406;2023-06-22T00:25:08;5.72;;;5.18;;
29574;SDS011;16507;51.046;6.406;2023-06-22T00:27:34;5.80;;;4.97;;
29574;SDS011;16507;51.046;6.406;2023-06-22T00:30:00;5.53;;;5.03;;
29574;SDS011;16507;51.046;6.406;2023-06-22T00:32:26;5.32;;;4.93;;
29574;SDS011;16507;51.046;6.406;2023-06-22T00:34:52;8.90;;;5.30;;
29574;SDS011;16507;51.046;6.406;2023-06-22T00:37:18;5.85;;;5.35;;
29574;SDS011;16507;51.046;6.406;2023-06-22T00:39:43;6.32;;;5.82;;
29574;SDS011;16507;51.046;6.406;2023-06-22T00:42:09;6.50;;;5.90;;
29574;SDS011;16507;51.046;6.406;2023-06-22T00:44:35;6.57;;;5.97;;
29574;SDS011;16507;51.046;6.406;2023-06-22T00:47:01;9.15;;;6.07;;
29574;SDS011;16507;51.046;6.406;2023-06-22T00:49:28;7.97;;;6.10;;
29574;SDS011;16507;51.046;6.406;2023-06-22T00:51:54;7.20;;;6.65;;
29574;SDS011;16507;51.046;6.406;2023-06-22T00:54:21;6.90;;;6.03;;
29574;SDS011;16507;51.046;6.406;2023-06-22T00:56:51;6.72;;;5.38;;
29574;SDS011;16507;51.046;6.406;2023-06-22T00:59:20;9.32;;;6.05;;
29574;SDS011;16507;51.046;6.406;2023-06-22T01:01:46;8.38;;;6.45;;
29574;SDS011;16507;51.046;6.406;2023-06-22T01:04:12;6.32;;;5.47;;
29574;SDS011;16507;51.046;6.406;2023-06-22T01:06:39;16.25;;;6.88;;
29574;SDS011;16507;51.046;6.406;2023-06-22T01:09:14;8.23;;;6.40;;
29574;SDS011;16507;51.046;6.406;2023-06-22T01:11:50;9.23;;;6.63;;
29574;SDS011;16507;51.046;6.406;2023-06-22T01:16:52;9.35;;;6.28;;
29574;SDS011;16507;51.046;6.406;2023-06-22T01:19:25;14.07;;;6.32;;
29574;SDS011;16507;51.046;6.406;2023-06-22T01:22:08;9.27;;;7.10;;
29574;SDS011;16507;51.046;6.406;2023-06-22T01:25:26;10.40;;;5.72;;
29574;SDS011;16507;51.046;6.406;2023-06-22T01:30:19;6.97;;;6.28;;
29574;SDS011;16507;51.046;6.406;2023-06-22T01:32:45;13.45;;;6.22;;
29574;SDS011;16507;51.046;6.406;2023-06-22T01:35:12;9.88;;;6.05;;
29574;SDS011;16507;51.046;6.406;2023-06-22T01:37:40;7.45;;;6.40;;
29574;SDS011;16507;51.046;6.406;2023-06-22T01:40:05;7.03;;;5.93;;
29574;SDS011;16507;51.046;6.406;2023-06-22T01:42:33;8.27;;;6.78;;
29574;SDS011;16507;51.046;6.406;2023-06-22T01:45:00;6.97;;;6.38;;
29574;SDS011;16507;51.046;6.406;2023-06-22T01:47:26;7.43;;;6.72;;
29574;SDS011;16507;51.046;6.406;2023-06-22T01:49:52;10.65;;;6.82;;
29574;SDS011;16507;51.046;6.406;2023-06-22T01:52:18;7.68;;;6.15;;
29574;SDS011;16507;51.046;6.406;2023-06-22T01:54:46;8.95;;;7.68;;
29574;SDS011;16507;51.046;6.406;2023-06-22T01:57:13;9.82;;;7.15;;
29574;SDS011;16507;51.046;6.406;2023-06-22T02:02:08;11.20;;;6.78;;
29574;SDS011;16507;51.046;6.406;2023-06-22T02:04:52;12.10;;;7.57;;
29574;SDS011;16507;51.046;6.406;2023-06-22T02:07:47;7.88;;;7.28;;
29574;SDS011;16507;51.046;6.406;2023-06-22T02:10:20;7.75;;;6.82;;
29574;SDS011;16507;51.046;6.406;2023-06-22T02:12:47;11.60;;;7.82;;
29574;SDS011;16507;51.046;6.406;2023-06-22T02:15:15;12.25;;;7.82;;
29574;SDS011;16507;51.046;6.406;2023-06-22T02:17:42;8.55;;;7.65;;
29574;SDS011;16507;51.046;6.406;2023-06-22T02:20:13;7.95;;;7.15;;
29574;SDS011;16507;51.046;6.406;2023-06-22T02:22:39;7.20;;;6.60;;
29574;SDS011;16507;51.046;6.406;2023-06-22T02:25:05;7.30;;;6.68;;
29574;SDS011;16507;51.046;6.406;2023-06-22T02:27:31;8.30;;;7.03;;
29574;SDS011;16507;51.046;6.406;2023-06-22T02:29:57;8.20;;;7.45;;
29574;SDS011;16507;51.046;6.406;2023-06-22T02:32:22;9.45;;;7.30;;
29574;SDS011;16507;51.046;6.406;2023-06-22T02:34:48;8.05;;;7.38;;
29574;SDS011;16507;51.046;6.406;2023-06-22T02:37:14;11.20;;;7.68;;
29574;SDS011;16507;51.046;6.406;2023-06-22T02:39:40;8.63;;;7.72;;
29574;SDS011;16507;51.046;6.406;2023-06-22T02:42:06;11.88;;;7.22;;
29574;SDS011;16507;51.046;6.406;2023-06-22T02:44:31;11.13;;;7.30;;
29574;SDS011;16507;51.046;6.406;2023-06-22T02:46:57;12.88;;;7.75;;
29574;SDS011;16507;51.046;6.406;2023-06-22T02:49:23;11.10;;;8.15;;
29574;SDS011;16507;51.046;6.406;2023-06-22T02:51:48;10.48;;;7.45;;
29574;SDS011;16507;51.046;6.406;2023-06-22T02:54:15;8.70;;;7.78;;
29574;SDS011;16507;51.046;6.406;2023-06-22T02:56:41;11.65;;;8.15;;
29574;SDS011;16507;51.046;6.406;2023-06-22T02:59:09;11.63;;;8.00;;
29574;SDS011;16507;51.046;6.406;2023-06-22T03:01:36;10.25;;;7.93;;
29574;SDS011;16507;51.046;6.406;2023-06-22T03:04:08;9.05;;;8.15;;
29574;SDS011;16507;51.046;6.406;2023-06-22T03:06:34;10.02;;;8.52;;
29574;SDS011;16507;51.046;6.406;2023-06-22T03:09:03;8.82;;;8.02;;
29574;SDS011;16507;51.046;6.406;2023-06-22T03:11:30;11.63;;;8.52;;
29574;SDS011;16507;51.046;6.406;2023-06-22T03:13:56;13.57;;;9.23;;
29574;SDS011;16507;51.046;6.406;2023-06-22T03:16:22;12.68;;;8.45;;
29574;SDS011;16507;51.046;6.406;2023-06-22T03:18:47;18.40;;;9.40;;
29574;SDS011;16507;51.046;6.406;2023-06-22T03:21:13;10.75;;;8.63;;
29574;SDS011;16507;51.046;6.406;2023-06-22T03:23:40;10.88;;;9.02;;
29574;SDS011;16507;51.046;6.406;2023-06-22T03:26:06;11.43;;;8.50;;
29574;SDS011;16507;51.046;6.406;2023-06-22T03:28:33;9.75;;;8.88;;
29574;SDS011;16507;51.046;6.406;2023-06-22T03:30:59;10.05;;;8.82;;
29574;SDS011;16507;51.046;6.406;2023-06-22T03:33:25;10.32;;;9.32;;
29574;SDS011;16507;51.046;6.406;2023-06-22T03:35:50;10.27;;;8.80;;
29574;SDS011;16507;51.046;6.406;2023-06-22T03:38:17;11.77;;;8.75;;
29574;SDS011;16507;51.046;6.406;2023-06-22T03:40:43;13.07;;;9.23;;
29574;SDS011;16507;51.046;6.406;2023-06-22T03:43:08;14.68;;;10.38;;
29574;SDS011;16507;51.046;6.406;2023-06-22T03:45:34;15.52;;;9.77;;
29574;SDS011;16507;51.046;6.406;2023-06-22T03:48:00;14.93;;;9.63;;
29574;SDS011;16507;51.046;6.406;2023-06-22T03:50:26;11.45;;;10.18;;
29574;SDS011;16507;51.046;6.406;2023-06-22T03:52:52;11.93;;;10.32;;
29574;SDS011;16507;51.046;6.406;2023-06-22T03:55:19;11.45;;;10.02;;
29574;SDS011;16507;51.046;6.406;2023-06-22T03:57:44;11.55;;;10.15;;
29574;SDS011;16507;51.046;6.406;2023-06-22T04:00:11;14.45;;;10.30;;
29574;SDS011;16507;51.046;6.406;2023-06-22T04:02:37;11.50;;;10.35;;
29574;SDS011;16507;51.046;6.406;2023-06-22T04:05:03;15.02;;;10.32;;
29574;SDS011;16507;51.046;6.406;2023-06-22T04:07:29;16.45;;;10.98;;
29574;SDS011;16507;51.046;6.406;2023-06-22T04:09:55;15.45;;;11.15;;
29574;SDS011;16507;51.046;6.406;2023-06-22T04:12:20;12.85;;;10.93;;
29574;SDS011;16507;51.046;6.406;2023-06-22T04:14:46;15.35;;;11.32;;
29574;SDS011;16507;51.046;6.406;2023-06-22T04:17:11;11.43;;;10.00;;
29574;SDS011;16507;51.046;6.406;2023-06-22T04:19:39;11.60;;;10.25;;
29574;SDS011;16507;51.046;6.406;2023-06-22T04:22:05;13.07;;;11.20;;
29574;SDS011;16507;51.046;6.406;2023-06-22T04:24:32;16.25;;;11.00;;
29574;SDS011;16507;51.046;6.406;2023-06-22T04:26:58;17.88;;;11.13;;
29574;SDS011;16507;51.046;6.406;2023-06-22T04:29:27;17.05;;;11.18;;
29574;SDS011;16507;51.046;6.406;2023-06-22T04:31:55;13.45;;;10.25;;
29574;SDS011;16507;51.046;6.406;2023-06-22T04:34:23;18.80;;;10.75;;
29574;SDS011;16507;51.046;6.406;2023-06-22T04:36:52;17.25;;;11.40;;
29574;SDS011;16507;51.046;6.406;2023-06-22T04:39:18;13.02;;;10.93;;
29574;SDS011;16507;51.046;6.406;2023-06-22T04:41:44;12.55;;;11.07;;
29574;SDS011;16507;51.046;6.406;2023-06-22T04:44:14;12.05;;;10.55;;
29574;SDS011;16507;51.046;6.406;2023-06-22T04:46:50;16.75;;;11.60;;
29574;SDS011;16507;51.046;6.406;2023-06-22T04:49:22;15.85;;;11.45;;
29574;SDS011;16507;51.046;6.406;2023-06-22T04:51:58;15.02;;;10.77;;
29574;SDS011;16507;51.046;6.406;2023-06-22T04:54:24;21.05;;;11.27;;
29574;SDS011;16507;51.046;6.406;2023-06-22T04:56:50;16.05;;;10.82;;
29574;SDS011;16507;51.046;6.406;2023-06-22T04:59:21;11.23;;;10.13;;
29574;SDS011;16507;51.046;6.406;2023-06-22T05:01:47;11.88;;;10.27;;
29574;SDS011;16507;51.046;6.406;2023-06-22T05:04:13;14.55;;;10.57;;
29574;SDS011;16507;51.046;6.406;2023-06-22T05:06:39;12.77;;;10.20;;
29574;SDS011;16507;51.046;6.406;2023-06-22T05:09:04;19.38;;;10.35;;
29574;SDS011;16507;51.046;6.406;2023-06-22T05:11:30;13.50;;;10.27;;
29574;SDS011;16507;51.046;6.406;2023-06-22T05:13:56;16.38;;;10.38;;
29574;SDS011;16507;51.046;6.406;2023-06-22T05:16:21;17.00;;;9.75;;
29574;SDS011;16507;51.046;6.406;2023-06-22T05:18:54;20.33;;;10.55;;
29574;SDS011;16507;51.046;6.406;2023-06-22T05:21:21;14.95;;;10.57;;
29574;SDS011;16507;51.046;6.406;2023-06-22T05:23:53;12.52;;;10.35;;
29574;SDS011;16507;51.046;6.406;2023-06-22T05:26:20;17.50;;;10.48;;
29574;SDS011;16507;51.046;6.406;2023-06-22T05:28:46;17.38;;;10.23;;
29574;SDS011;16507;51.046;6.406;2023-06-22T05:31:13;18.50;;;10.23;;
29574;SDS011;16507;51.046;6.406;2023-06-22T05:33:39;15.45;;;9.82;;
29574;SDS011;16507;51.046;6.406;2023-06-22T05:36:05;13.13;;;9.95;;
29574;SDS011;16507;51.046;6.406;2023-06-22T05:38:31;21.63;;;9.82;;
29574;SDS011;16507;51.046;6.406;2023-06-22T05:40:57;27.08;;;10.90;;
29574;SDS011;16507;51.046;6.406;2023-06-22T05:43:23;17.02;;;11.02;;
29574;SDS011;16507;51.046;6.406;2023-06-22T05:45:49;25.23;;;11.32;;
29574;SDS011;16507;51.046;6.406;2023-06-22T05:48:14;14.52;;;10.48;;
29574;SDS011;16507;51.046;6.406;2023-06-22T05:50:40;20.92;;;10.48;;
29574;SDS011;16507;51.046;6.406;2023-06-22T05:53:06;11.25;;;10.20;;
29574;SDS011;16507;51.046;6.406;2023-06-22T05:55:32;11.77;;;10.05;;
29574;SDS011;16507;51.046;6.406;2023-06-22T05:57:57;16.17;;;10.43;;
29574;SDS011;16507;51.046;6.406;2023-06-22T06:00:23;24.15;;;10.90;;
29574;SDS011;16507;51.046;6.406;2023-06-22T06:02:49;18.88;;;11.20;;
29574;SDS011;16507;51.046;6.406;2023-06-22T06:05:15;28.92;;;11.43;;
29574;SDS011;16507;51.046;6.406;2023-06-22T06:07:44;24.63;;;11.57;;
29574;SDS011;16507;51.046;6.406;2023-06-22T06:10:11;22.88;;;10.85;;
29574;SDS011;16507;51.046;6.406;2023-06-22T06:12:37;21.30;;;11.30;;
29574;SDS011;16507;51.046;6.406;2023-06-22T06:15:03;22.85;;;11.18;;
29574;SDS011;16507;51.046;6.406;2023-06-22T06:17:30;21.35;;;11.45;;
29574;SDS011;16507;51.046;6.406;2023-06-22T06:19:56;28.58;;;11.20;;
29574;SDS011;16507;51.046;6.406;2023-06-22T06:22:22;21.05;;;12.35;;
29574;SDS011;16507;51.046;6.406;2023-06-22T06:24:48;17.73;;;11.18;;
29574;SDS011;16507;51.046;6.406;2023-06-22T06:27:15;15.48;;;11.40;;
29574;SDS011;16507;51.046;6.406;2023-06-22T06:29:43;24.02;;;12.35;;
29574;SDS011;16507;51.046;6.406;2023-06-22T06:32:10;21.63;;;12.82;;
29574;SDS011;16507;51.046;6.406;2023-06-22T06:34:36;17.08;;;12.13;;
29574;SDS011;16507;51.046;6.406;2023-06-22T06:37:02;30.55;;;12.27;;
29574;SDS011;16507;51.046;6.406;2023-06-22T06:39:28;29.40;;;11.48;;
29574;SDS011;16507;51.046;6.406;2023-06-22T06:41:53;15.45;;;11.85;;
29574;SDS011;16507;51.046;6.406;2023-06-22T06:44:19;19.38;;;12.10;;
29574;SDS011;16507;51.046;6.406;2023-06-22T06:46:44;24.67;;;11.95;;
29574;SDS011;16507;51.046;6.406;2023-06-22T06:49:10;23.58;;;12.27;;
29574;SDS011;16507;51.046;6.406;2023-06-22T06:51:36;22.42;;;12.38;;
29574;SDS011;16507;51.046;6.406;2023-06-22T06:54:01;17.88;;;11.60;;
29574;SDS011;16507;51.046;6.406;2023-06-22T06:56:28;21.95;;;11.75;;
29574;SDS011;16507;51.046;6.406;2023-06-22T06:58:55;13.57;;;11.98;;
29574;SDS011;16507;51.046;6.406;2023-06-22T07:01:20;15.93;;;11.98;;
29574;SDS011;16507;51.046;6.406;2023-06-22T07:03:46;19.60;;;12.45;;
29574;SDS011;16507;51.046;6.406;2023-06-22T07:06:13;25.13;;;12.45;;
29574;SDS011;16507;51.046;6.406;2023-06-22T07:08:39;21.10;;;11.50;;
29574;SDS011;16507;51.046;6.406;2023-06-22T07:11:05;20.92;;;12.65;;
29574;SDS011;16507;51.046;6.406;2023-06-22T07:13:30;22.13;;;13.32;;
29574;SDS011;16507;51.046;6.406;2023-06-22T07:15:56;26.48;;;12.30;;
29574;SDS011;16507;51.046;6.406;2023-06-22T07:18:23;24.15;;;12.85;;
29574;SDS011;16507;51.046;6.406;2023-06-22T07:20:49;25.33;;;11.82;;
29574;SDS011;16507;51.046;6.406;2023-06-22T07:23:14;19.98;;;12.27;;
29574;SDS011;16507;51.046;6.406;2023-06-22T07:25:41;17.77;;;12.23;;
29574;SDS011;16507;51.046;6.406;2023-06-22T07:28:06;15.43;;;11.63;;
29574;SDS011;16507;51.046;6.406;2023-06-22T07:30:33;16.33;;;11.52;;
29574;SDS011;16507;51.046;6.406;2023-06-22T07:32:59;13.48;;;11.45;;
29574;SDS011;16507;51.046;6.406;2023-06-22T07:35:29;22.15;;;11.45;;
29574;SDS011;16507;51.046;6.406;2023-06-22T07:37:58;21.20;;;12.02;;
29574;SDS011;16507;51.046;6.406;2023-06-22T07:40:23;20.50;;;12.20;;
29574;SDS011;16507;51.046;6.406;2023-06-22T07:42:49;23.40;;;11.38;;
29574;SDS011;16507;51.046;6.406;2023-06-22T07:45:16;18.80;;;11.32;;
29574;SDS011;16507;51.046;6.406;2023-06-22T07:47:42;25.25;;;12.00;;
29574;SDS011;16507;51.046;6.406;2023-06-22T07:50:08;17.63;;;11.65;;
29574;SDS011;16507;51.046;6.406;2023-06-22T07:52:34;47.55;;;12.95;;
29574;SDS011;16507;51.046;6.406;2023-06-22T07:55:00;20.55;;;11.43;;
29574;SDS011;16507;51.046;6.406;2023-06-22T07:57:27;19.38;;;11.65;;
29574;SDS011;16507;51.046;6.406;2023-06-22T08:00:03;16.83;;;10.85;;
29574;SDS011;16507;51.046;6.406;2023-06-22T08:02:43;23.27;;;12.15;;
29574;SDS011;16507;51.046;6.406;2023-06-22T08:05:10;23.08;;;11.23;;
29574;SDS011;16507;51.046;6.406;2023-06-22T08:07:36;15.63;;;10.43;;
29574;SDS011;16507;51.046;6.406;2023-06-22T08:10:02;16.67;;;10.65;;
29574;SDS011;16507;51.046;6.406;2023-06-22T08:12:29;23.23;;;10.95;;
29574;SDS011;16507;51.046;6.406;2023-06-22T08:14:55;14.68;;;10.80;;
29574;SDS011;16507;51.046;6.406;2023-06-22T08:17:21;17.40;;;10.93;;
29574;SDS011;16507;51.046;6.406;2023-06-22T08:19:51;15.85;;;11.18;;
29574;SDS011;16507;51.046;6.406;2023-06-22T08:22:16;13.45;;;10.20;;
29574;SDS011;16507;51.046;6.406;2023-06-22T08:24:43;11.75;;;10.45;;
29574;SDS011;16507;51.046;6.406;2023-06-22T08:27:09;16.42;;;10.43;;
29574;SDS011;16507;51.046;6.406;2023-06-22T08:29:37;20.35;;;10.40;;
29574;SDS011;16507;51.046;6.406;2023-06-22T08:32:02;10.73;;;8.77;;
29574;SDS011;16507;51.046;6.406;2023-06-22T08:34:28;10.35;;;9.55;;
29574;SDS011;16507;51.046;6.406;2023-06-22T08:36:54;13.65;;;11.45;;
29574;SDS011;16507;51.046;6.406;2023-06-22T08:39:20;15.23;;;10.82;;
29574;SDS011;16507;51.046;6.406;2023-06-22T08:41:46;15.77;;;10.75;;
29574;SDS011;16507;51.046;6.406;2023-06-22T08:44:12;11.00;;;10.00;;
29574;SDS011;16507;51.046;6.406;2023-06-22T08:46:38;14.32;;;9.85;;
29574;SDS011;16507;51.046;6.406;2023-06-22T08:49:05;13.20;;;9.40;;
29574;SDS011;16507;51.046;6.406;2023-06-22T08:51:32;14.43;;;8.88;;
29574;SDS011;16507;51.046;6.406;2023-06-22T08:53:57;12.55;;;9.90;;
29574;SDS011;16507;51.046;6.406;2023-06-22T08:56:23;13.93;;;8.63;;
29574;SDS011;16507;51.046;6.406;2023-06-22T08:58:48;9.73;;;8.70;;
29574;SDS011;16507;51.046;6.406;2023-06-22T09:01:14;10.05;;;8.32;;
29574;SDS011;16507;51.046;6.406;2023-06-22T09:03:40;12.05;;;8.77;;
29574;SDS011;16507;51.046;6.406;2023-06-22T09:06:06;13.77;;;8.88;;
29574;SDS011;16507;51.046;6.406;2023-06-22T09:08:34;15.10;;;8.70;;
29574;SDS011;16507;51.046;6.406;2023-06-22T09:11:00;12.02;;;8.05;;
29574;SDS011;16507;51.046;6.406;2023-06-22T09:13:26;9.90;;;7.60;;
29574;SDS011;16507;51.046;6.406;2023-06-22T09:15:53;16.73;;;8.23;;
29574;SDS011;16507;51.046;6.406;2023-06-22T09:18:18;11.65;;;7.22;;
29574;SDS011;16507;51.046;6.406;2023-06-22T09:20:44;8.70;;;7.28;;
29574;SDS011;16507;51.046;6.406;2023-06-22T09:23:10;8.55;;;7.15;;
29574;SDS011;16507;51.046;6.406;2023-06-22T09:25:36;7.68;;;7.18;;
29574;SDS011;16507;51.046;6.406;2023-06-22T09:28:02;8.25;;;7.53;;
29574;SDS011;16507;51.046;6.406;2023-06-22T09:30:27;13.30;;;6.70;;
29574;SDS011;16507;51.046;6.406;2023-06-22T09:32:53;7.10;;;6.60;;
29574;SDS011;16507;51.046;6.406;2023-06-22T09:35:19;21.10;;;7.00;;
29574;SDS011;16507;51.046;6.406;2023-06-22T09:37:45;7.68;;;6.75;;
29574;SDS011;16507;51.046;6.406;2023-06-22T09:40:10;10.13;;;5.97;;
29574;SDS011;16507;51.046;6.406;2023-06-22T09:42:38;7.22;;;6.00;;
29574;SDS011;16507;51.046;6.406;2023-06-22T09:45:04;6.32;;;5.93;;
29574;SDS011;16507;51.046;6.406;2023-06-22T09:47:30;6.68;;;5.97;;
29574;SDS011;16507;51.046;6.406;2023-06-22T09:49:56;8.18;;;6.28;;
29574;SDS011;16507;51.046;6.406;2023-06-22T09:52:25;6.20;;;5.60;;
29574;SDS011;16507;51.046;6.406;2023-06-22T09:54:50;6.25;;;5.65;;
29574;SDS011;16507;51.046;6.406;2023-06-22T09:57:16;5.53;;;5.07;;
29574;SDS011;16507;51.046;6.406;2023-06-22T09:59:42;5.72;;;5.22;;
29574;SDS011;16507;51.046;6.406;2023-06-22T10:02:10;5.35;;;4.80;;
29574;SDS011;16507;51.046;6.406;2023-06-22T10:04:36;5.45;;;4.97;;
29574;SDS011;16507;51.046;6.406;2023-06-22T10:07:02;5.32;;;5.03;;
29574;SDS011;16507;51.046;6.406;2023-06-22T10:09:28;5.50;;;5.00;;
29574;SDS011;16507;51.046;6.406;2023-06-22T10:11:53;6.47;;;4.95;;
29574;SDS011;16507;51.046;6.406;2023-06-22T10:14:19;8.23;;;4.45;;
29574;SDS011;16507;51.046;6.406;2023-06-22T10:16:45;8.73;;;5.30;;
29574;SDS011;16507;51.046;6.406;2023-06-22T10:19:11;19.20;;;6.43;;
29574;SDS011;16507;51.046;6.406;2023-06-22T10:21:36;6.15;;;5.55;;
29574;SDS011;16507;51.046;6.406;2023-06-22T10:24:02;8.90;;;5.70;;
29574;SDS011;16507;51.046;6.406;2023-06-22T10:26:34;6.15;;;5.85;;
29574;SDS011;16507;51.046;6.406;2023-06-22T10:29:00;20.13;;;5.93;;
29574;SDS011;16507;51.046;6.406;2023-06-22T10:31:29;8.68;;;6.38;;
29574;SDS011;16507;51.046;6.406;2023-06-22T10:33:55;17.00;;;6.40;;
29574;SDS011;16507;51.046;6.406;2023-06-22T10:36:21;7.20;;;6.60;;
29574;SDS011;16507;51.046;6.406;2023-06-22T10:38:47;8.48;;;6.07;;
29574;SDS011;16507;51.046;6.406;2023-06-22T10:41:14;14.85;;;7.18;;
29574;SDS011;16507;51.046;6.406;2023-06-22T10:43:39;7.97;;;7.13;;
29574;SDS011;16507;51.046;6.406;2023-06-22T10:46:07;8.85;;;7.45;;
29574;SDS011;16507;51.046;6.406;2023-06-22T10:48:33;9.27;;;7.10;;
29574;SDS011;16507;51.046;6.406;2023-06-22T10:50:59;11.63;;;7.15;;
29574;SDS011;16507;51.046;6.406;2023-06-22T10:53:24;9.27;;;7.68;;
29574;SDS011;16507;51.046;6.406;2023-06-22T10:55:50;8.65;;;7.95;;
29574;SDS011;16507;51.046;6.406;2023-06-22T10:58:17;8.00;;;7.35;;
29574;SDS011;16507;51.046;6.406;2023-06-22T11:00:43;8.23;;;7.53;;
29574;SDS011;16507;51.046;6.406;2023-06-22T11:03:09;8.80;;;7.72;;
29574;SDS011;16507;51.046;6.406;2023-06-22T11:05:35;8.20;;;7.45;;
29574;SDS011;16507;51.046;6.406;2023-06-22T11:08:00;9.05;;;8.35;;
29574;SDS011;16507;51.046;6.406;2023-06-22T11:10:26;8.80;;;8.00;;
29574;SDS011;16507;51.046;6.406;2023-06-22T11:12:52;9.25;;;8.43;;
29574;SDS011;16507;51.046;6.406;2023-06-22T11:15:18;10.40;;;9.15;;
29574;SDS011;16507;51.046;6.406;2023-06-22T11:17:43;10.65;;;9.55;;
29574;SDS011;16507;51.046;6.406;2023-06-22T11:20:12;14.75;;;10.73;;
29574;SDS011;16507;51.046;6.406;2023-06-22T11:22:39;14.40;;;10.98;;
29574;SDS011;16507;51.046;6.406;2023-06-22T11:25:07;11.98;;;10.20;;
29574;SDS011;16507;51.046;6.406;2023-06-22T11:27:33;11.68;;;10.52;;
29574;SDS011;16507;51.046;6.406;2023-06-22T11:29:59;11.13;;;10.00;;
29574;SDS011;16507;51.046;6.406;2023-06-22T11:32:25;11.50;;;9.85;;
29574;SDS011;16507;51.046;6.406;2023-06-22T11:34:51;14.63;;;10.50;;
29574;SDS011;16507;51.046;6.406;2023-06-22T11:37:16;13.02;;;10.80;;
29574;SDS011;16507;51.046;6.406;2023-06-22T11:39:42;12.80;;;9.98;;
29574;SDS011;16507;51.046;6.406;2023-06-22T11:42:11;13.15;;;10.93;;
29574;SDS011;16507;51.046;6.406;2023-06-22T11:44:36;13.73;;;10.70;;
29574;SDS011;16507;51.046;6.406;2023-06-22T11:47:02;10.70;;;9.70;;
29574;SDS011;16507;51.046;6.406;2023-06-22T11:49:30;11.07;;;10.05;;
29574;SDS011;16507;51.046;6.406;2023-06-22T11:51:55;9.75;;;8.73;;
29574;SDS011;16507;51.046;6.406;2023-06-22T11:54:21;9.75;;;8.90;;
29574;SDS011;16507;51.046;6.406;2023-06-22T11:56:47;12.05;;;10.82;;
29574;SDS011;16507;51.046;6.406;2023-06-22T11:59:12;12.25;;;11.18;;
29574;SDS011;16507;51.046;6.406;2023-06-22T12:01:38;13.95;;;12.75;;
29574;SDS011;16507;51.046;6.406;2023-06-22T12:04:04;14.70;;;13.00;;
29574;SDS011;16507;51.046;6.406;2023-06-22T12:06:31;14.57;;;13.23;;
29574;SDS011;16507;51.046;6.406;2023-06-22T12:08:58;14.13;;;12.90;;
29574;SDS011;16507;51.046;6.406;2023-06-22T12:11:23;17.75;;;13.90;;
29574;SDS011;16507;51.046;6.406;2023-06-22T12:13:49;18.55;;;15.10;;
29574;SDS011;16507;51.046;6.406;2023-06-22T12:16:14;17.92;;;14.68;;
29574;SDS011;16507;51.046;6.406;2023-06-22T12:18:40;17.50;;;15.70;;
29574;SDS011;16507;51.046;6.406;2023-06-22T12:21:06;18.42;;;16.65;;
29574;SDS011;16507;51.046;6.406;2023-06-22T12:23:31;20.98;;;18.80;;
29574;SDS011;16507;51.046;6.406;2023-06-22T12:25:57;19.88;;;17.80;;
29574;SDS011;16507;51.046;6.406;2023-06-22T12:28:24;20.88;;;18.73;;
29574;SDS011;16507;51.046;6.406;2023-06-22T12:30:50;30.05;;;20.67;;
29574;SDS011;16507;51.046;6.406;2023-06-22T12:33:15;24.52;;;20.30;;
29574;SDS011;16507;51.046;6.406;2023-06-22T12:35:41;25.35;;;20.92;;
29574;SDS011;16507;51.046;6.406;2023-06-22T12:38:07;21.40;;;19.35;;
29574;SDS011;16507;51.046;6.406;2023-06-22T12:40:33;22.75;;;20.30;;
29574;SDS011;16507;51.046;6.406;2023-06-22T12:42:58;27.60;;;20.30;;
29574;SDS011;16507;51.046;6.406;2023-06-22T12:45:24;22.50;;;20.20;;
29574;SDS011;16507;51.046;6.406;2023-06-22T12:47:53;23.17;;;20.40;;
29574;SDS011;16507;51.046;6.406;2023-06-22T12:50:19;24.55;;;19.65;;
29574;SDS011;16507;51.046;6.406;2023-06-22T12:52:45;22.83;;;19.45;;
29574;SDS011;16507;51.046;6.406;2023-06-22T12:55:10;25.35;;;20.88;;
29574;SDS011;16507;51.046;6.406;2023-06-22T12:57:36;22.75;;;20.35;;
29574;SDS011;16507;51.046;6.406;2023-06-22T13:00:02;25.75;;;22.15;;
29574;SDS011;16507;51.046;6.406;2023-06-22T13:02:29;29.20;;;21.33;;
29574;SDS011;16507;51.046;6.406;2023-06-22T13:04:55;23.90;;;21.10;;
29574;SDS011;16507;51.046;6.406;2023-06-22T13:07:21;24.33;;;21.02;;
29574;SDS011;16507;51.046;6.406;2023-06-22T13:09:49;22.17;;;19.90;;
29574;SDS011;16507;51.046;6.406;2023-06-22T13:12:18;23.90;;;18.85;;
29574;SDS011;16507;51.046;6.406;2023-06-22T13:14:45;21.10;;;19.00;;
29574;SDS011;16507;51.046;6.406;2023-06-22T13:17:12;23.05;;;20.17;;
29574;SDS011;16507;51.046;6.406;2023-06-22T13:19:38;23.20;;;20.42;;
29574;SDS011;16507;51.046;6.406;2023-06-22T13:22:03;26.48;;;21.10;;
29574;SDS011;16507;51.046;6.406;2023-06-22T13:24:30;24.00;;;20.20;;
29574;SDS011;16507;51.046;6.406;2023-06-22T13:26:55;25.38;;;21.83;;
29574;SDS011;16507;51.046;6.406;2023-06-22T13:29:21;25.25;;;21.33;;
29574;SDS011;16507;51.046;6.406;2023-06-22T13:31:46;25.80;;;21.38;;
29574;SDS011;16507;51.046;6.406;2023-06-22T13:34:12;30.30;;;22.92;;
29574;SDS011;16507;51.046;6.406;2023-06-22T13:36:38;25.38;;;21.92;;
29574;SDS011;16507;51.046;6.406;2023-06-22T13:39:03;31.77;;;23.55;;
29574;SDS011;16507;51.046;6.406;2023-06-22T13:41:29;30.80;;;24.45;;
29574;SDS011;16507;51.046;6.406;2023-06-22T13:43:54;31.42;;;24.95;;
29574;SDS011;16507;51.046;6.406;2023-06-22T13:46:20;38.25;;;26.20;;
29574;SDS011;16507;51.046;6.406;2023-06-22T13:48:46;31.50;;;26.63;;
29574;SDS011;16507;51.046;6.406;2023-06-22T13:51:11;34.78;;;27.20;;
29574;SDS011;16507;51.046;6.406;2023-06-22T13:53:37;34.30;;;27.70;;
29574;SDS011;16507;51.046;6.406;2023-06-22T13:56:03;34.83;;;27.00;;
29574;SDS011;16507;51.046;6.406;2023-06-22T13:58:28;34.50;;;27.20;;
29574;SDS011;16507;51.046;6.406;2023-06-22T14:00:57;37.72;;;27.52;;
29574;SDS011;16507;51.046;6.406;2023-06-22T14:03:23;36.42;;;27.70;;
29574;SDS011;16507;51.046;6.406;2023-06-22T14:05:48;41.10;;;28.92;;
29574;SDS011;16507;51.046;6.406;2023-06-22T14:08:14;39.05;;;29.05;;
29574;SDS011;16507;51.046;6.406;2023-06-22T14:10:40;41.58;;;29.60;;
29574;SDS011;16507;51.046;6.406;2023-06-22T14:13:05;40.50;;;28.90;;
29574;SDS011;16507;51.046;6.406;2023-06-22T14:15:31;41.05;;;30.08;;
29574;SDS011;16507;51.046;6.406;2023-06-22T14:17:57;43.63;;;30.10;;
29574;SDS011;16507;51.046;6.406;2023-06-22T14:20:22;37.22;;;30.15;;
29574;SDS011;16507;51.046;6.406;2023-06-22T14:22:48;37.58;;;30.50;;
29574;SDS011;16507;51.046;6.406;2023-06-22T14:25:14;40.42;;;29.65;;
29574;SDS011;16507;51.046;6.406;2023-06-22T14:27:39;37.38;;;28.95;;
29574;SDS011;16507;51.046;6.406;2023-06-22T14:30:05;38.42;;;29.27;;
29574;SDS011;16507;51.046;6.406;2023-06-22T14:32:31;37.90;;;30.77;;
29574;SDS011;16507;51.046;6.406;2023-06-22T14:34:56;36.15;;;29.55;;